Thomson, New York
Current Conditions -  °F | °C
As of 2:53 PM on Thursday 23 Oct 2014 (Local Time) from KGFL Reporting Station
Light Rain Light Rain  
Wind Chill: 40°   Ceiling: 2000
Heat Index: 47°   Visibility: 8mi
Dew Point: 43°   Wind: 20mph
Humidity: 86%   Direction: 10°N
Pressure: 29.83"   Gusts: 29mph
Location:  43.09°N, 73.5018°W
Report Text: KGFL 231853Z AUTO 01017G25KT 8SM -RA BKN020 OVC029 08/06 A2983 RMK AO2 RAB20 SLP103 P0002 T00830061
Loading
Personal Weather Stations






























Interactive Weather Map New forecast layout! Learn more

10-Day Weather Forecast

Advertisements
Track Severe Weather on mobile